createdAt,value
2022-08-12T00:00:37.222Z,1.50
2022-08-12T00:03:24.995Z,1.60
2022-08-12T00:06:11.553Z,1.70
2022-08-12T00:08:58.670Z,1.60
2022-08-12T00:11:46.823Z,1.70
2022-08-12T00:14:33.519Z,1.90
2022-08-12T00:17:22.751Z,2.10
2022-08-12T00:20:10.453Z,1.80
2022-08-12T00:22:59.581Z,1.90
2022-08-12T00:26:22.561Z,1.60
2022-08-12T00:29:10.167Z,1.70
2022-08-12T00:31:57.862Z,1.40
2022-08-12T00:34:51.747Z,1.50
2022-08-12T00:37:43.769Z,1.80
2022-08-12T00:40:32.255Z,1.70
2022-08-12T00:43:00.540Z,1.70
2022-08-12T00:45:48.979Z,1.30
2022-08-12T00:48:17.592Z,1.60
2022-08-12T00:50:48.047Z,1.70
2022-08-12T00:53:19.295Z,1.60
2022-08-12T00:55:48.007Z,1.90
2022-08-12T00:58:20.250Z,1.80
2022-08-12T01:00:50.644Z,1.60
2022-08-12T01:03:22.107Z,1.50
2022-08-12T01:06:12.131Z,1.60
2022-08-12T01:08:59.390Z,1.50
2022-08-12T01:11:31.846Z,1.50
2022-08-12T01:14:01.701Z,1.90
2022-08-12T01:16:30.336Z,1.50
2022-08-12T01:19:00.476Z,1.60
2022-08-12T01:21:28.378Z,1.60
2022-08-12T01:24:32.016Z,1.60
2022-08-12T01:27:07.617Z,1.60
2022-08-12T01:29:43.028Z,1.60
2022-08-12T01:32:14.567Z,1.60
2022-08-12T01:34:55.278Z,1.80
2022-08-12T01:37:26.513Z,1.50
2022-08-12T01:40:34.042Z,1.50
2022-08-12T01:42:50.513Z,1.80
2022-08-12T01:45:25.040Z,1.50
2022-08-12T01:48:03.710Z,1.90
2022-08-12T01:51:00.505Z,1.60
2022-08-12T01:53:57.546Z,1.70
2022-08-12T01:56:29.067Z,1.70
2022-08-12T01:59:21.804Z,1.50
2022-08-12T02:01:52.950Z,1.80
2022-08-12T02:04:58.133Z,1.80
2022-08-12T02:08:15.206Z,1.70
2022-08-12T02:11:16.867Z,1.40
2022-08-12T02:14:24.258Z,1.50
2022-08-12T02:17:54.605Z,1.60
2022-08-12T02:20:22.030Z,1.50
2022-08-12T02:22:52.261Z,1.70
2022-08-12T02:25:36.410Z,1.80
2022-08-12T02:28:08.054Z,1.80
2022-08-12T02:30:42.392Z,1.80
2022-08-12T02:33:12.043Z,1.60
2022-08-12T02:35:40.260Z,1.50
2022-08-12T02:38:11.354Z,1.90
2022-08-12T02:40:43.062Z,1.70
2022-08-12T02:43:32.975Z,1.70
2022-08-12T02:46:02.143Z,1.80
2022-08-12T02:48:36.048Z,2.20
2022-08-12T02:51:09.466Z,2.50
2022-08-12T02:53:39.058Z,3.00
2022-08-12T02:56:07.542Z,3.10
2022-08-12T02:58:36.350Z,2.80
2022-08-12T03:01:10.333Z,3.10
2022-08-12T03:03:40.548Z,3.10
2022-08-12T03:06:21.474Z,4.10
2022-08-12T03:08:54.015Z,4.20
2022-08-12T03:11:48.800Z,3.80
2022-08-12T03:14:20.451Z,3.30
2022-08-12T03:16:51.900Z,3.30
2022-08-12T03:19:21.305Z,3.60
2022-08-12T03:21:54.642Z,2.70
2022-08-12T03:24:39.085Z,2.60
2022-08-12T03:27:10.519Z,3.00
2022-08-12T03:29:43.382Z,3.00
2022-08-12T03:32:35.915Z,3.60
2022-08-12T03:35:08.043Z,3.40
2022-08-12T03:37:37.796Z,2.90
2022-08-12T03:40:09.759Z,3.80
2022-08-12T03:42:41.132Z,3.80
2022-08-12T03:45:52.498Z,4.00
2022-08-12T03:48:39.863Z,4.20
2022-08-12T03:51:26.783Z,3.80
2022-08-12T03:54:13.866Z,4.10
2022-08-12T03:57:00.526Z,4.40
2022-08-12T03:59:47.258Z,4.20
2022-08-12T04:02:16.275Z,4.10
2022-08-12T04:04:49.288Z,4.30
2022-08-12T04:07:17.969Z,3.90
2022-08-12T04:09:47.226Z,3.80
2022-08-12T04:12:33.915Z,3.40
2022-08-12T04:15:02.758Z,3.00
2022-08-12T04:17:31.832Z,2.40
2022-08-12T04:20:00.117Z,2.80
2022-08-12T04:22:31.031Z,3.50
2022-08-12T04:25:03.190Z,3.30
2022-08-12T04:27:32.708Z,3.30
2022-08-12T04:30:30.946Z,3.30
2022-08-12T04:32:52.325Z,4.00
2022-08-12T04:35:22.209Z,4.50
2022-08-12T04:37:58.758Z,4.90
2022-08-12T04:40:31.420Z,4.50
2022-08-12T04:43:01.664Z,5.20
2022-08-12T04:45:35.229Z,6.10
2022-08-12T04:48:03.488Z,5.70
2022-08-12T04:50:35.872Z,5.20
2022-08-12T04:53:08.403Z,5.50
2022-08-12T04:55:41.041Z,5.30
2022-08-12T04:58:10.544Z,5.00
2022-08-12T05:00:39.193Z,5.10
2022-08-12T05:03:07.674Z,4.70
2022-08-12T05:05:38.066Z,5.20
2022-08-12T05:08:11.991Z,5.10
2022-08-12T05:10:40.306Z,5.00
2022-08-12T05:13:11.601Z,5.20
2022-08-12T05:16:04.052Z,4.40
2022-08-12T05:18:29.581Z,5.00
2022-08-12T05:21:00.942Z,4.70
2022-08-12T05:23:29.311Z,4.60
2022-08-12T05:25:57.514Z,4.70
2022-08-12T05:28:27.387Z,4.20
2022-08-12T05:30:57.466Z,4.10
2022-08-12T05:33:38.048Z,3.90
2022-08-12T05:36:08.013Z,3.80
2022-08-12T05:38:55.267Z,3.80
2022-08-12T05:41:25.655Z,3.90
2022-08-12T05:43:57.044Z,4.10
2022-08-12T05:46:27.532Z,4.10
2022-08-12T05:48:56.712Z,4.30
2022-08-12T05:51:32.302Z,4.20
2022-08-12T05:54:11.856Z,4.20
2022-08-12T05:56:43.647Z,3.60
2022-08-12T05:59:12.538Z,3.80
2022-08-12T06:02:08.956Z,3.80
2022-08-12T06:04:30.996Z,4.10
2022-08-12T06:06:59.235Z,3.70
2022-08-12T06:09:30.433Z,3.70
2022-08-12T06:12:04.883Z,3.90
2022-08-12T06:14:37.785Z,3.70
2022-08-12T06:17:10.499Z,3.90
2022-08-12T06:20:22.809Z,4.00
2022-08-12T06:22:27.295Z,3.50
2022-08-12T06:24:55.736Z,3.90
2022-08-12T06:27:23.940Z,3.90
2022-08-12T06:30:07.924Z,3.60
2022-08-12T06:32:52.048Z,3.60
2022-08-12T06:35:48.762Z,3.40
2022-08-12T06:38:25.268Z,3.40
2022-08-12T06:41:17.066Z,2.80
2022-08-12T06:44:06.307Z,3.20
2022-08-12T06:46:37.140Z,3.20
2022-08-12T06:49:06.720Z,2.40
2022-08-12T06:51:34.866Z,1.90
2022-08-12T06:54:03.021Z,1.80
2022-08-12T06:57:01.951Z,1.30
2022-08-12T06:59:21.482Z,1.30
2022-08-12T07:01:51.618Z,1.30
2022-08-12T07:04:38.738Z,1.20
2022-08-12T07:07:10.147Z,1.10
2022-08-12T07:10:04.583Z,1.20
2022-08-12T07:12:30.918Z,0.90
2022-08-12T07:15:00.037Z,1.10
2022-08-12T07:17:36.808Z,1.20
2022-08-12T07:20:29.845Z,1.20
2022-08-12T07:23:05.300Z,1.30
2022-08-12T07:25:40.761Z,1.20
2022-08-12T07:28:17.207Z,1.10
2022-08-12T07:30:49.366Z,1.10
2022-08-12T07:33:19.946Z,1.10
2022-08-12T07:35:49.899Z,0.90
2022-08-12T07:38:33.973Z,1.20
2022-08-12T07:41:20.709Z,1.40
2022-08-12T07:43:52.110Z,1.30
2022-08-12T07:46:22.631Z,1.20
2022-08-12T07:48:53.390Z,1.10
2022-08-12T07:51:25.286Z,1.30
2022-08-12T07:54:01.137Z,1.10
2022-08-12T07:56:31.784Z,0.90
2022-08-12T07:59:01.289Z,0.90
2022-08-12T08:01:30.276Z,1.00
2022-08-12T08:04:19.374Z,1.30
2022-08-12T08:06:49.041Z,1.00
2022-08-12T08:09:19.260Z,1.10
2022-08-12T08:12:06.256Z,1.10
2022-08-12T08:14:34.565Z,1.30
2022-08-12T08:17:03.770Z,1.00
2022-08-12T08:20:02.125Z,1.00
2022-08-12T08:22:24.781Z,1.20
2022-08-12T08:25:20.537Z,1.10
2022-08-12T08:28:13.775Z,1.20
2022-08-12T08:30:44.496Z,1.20
2022-08-12T08:33:23.624Z,1.20
2022-08-12T08:36:05.329Z,1.10
2022-08-12T08:38:35.117Z,1.30
2022-08-12T08:42:13.800Z,1.10
2022-08-12T08:44:12.240Z,1.10
2022-08-12T08:46:41.067Z,1.10
2022-08-12T08:49:09.598Z,0.90
2022-08-12T08:51:39.179Z,1.10
2022-08-12T08:54:09.133Z,1.20
2022-08-12T08:56:43.976Z,1.10
2022-08-12T08:59:13.305Z,1.40
2022-08-12T09:01:44.325Z,1.10
2022-08-12T09:05:12.089Z,1.10
2022-08-12T09:07:17.213Z,1.10
2022-08-12T09:10:02.257Z,1.10
2022-08-12T09:12:54.266Z,1.00
2022-08-12T09:15:35.705Z,1.10
2022-08-12T09:20:54.382Z,1.10
2022-08-12T09:23:58.695Z,1.70
2022-08-12T09:26:11.058Z,1.50
2022-08-12T09:28:41.155Z,1.10
2022-08-12T09:32:03.543Z,1.00
2022-08-12T09:34:25.313Z,1.10
2022-08-12T09:37:00.658Z,1.30
2022-08-12T09:40:04.239Z,1.40
2022-08-12T09:42:53.064Z,1.60
2022-08-12T09:46:11.126Z,1.10
2022-08-12T09:48:21.968Z,1.40
2022-08-12T09:50:55.164Z,1.00
2022-08-12T09:53:36.431Z,1.10
2022-08-12T09:57:00.036Z,1.20
2022-08-12T09:59:01.774Z,1.20
2022-08-12T10:01:35.194Z,1.20
2022-08-12T10:04:20.327Z,0.90
2022-08-12T10:06:54.448Z,1.40
2022-08-12T10:09:28.298Z,1.00
2022-08-12T10:12:31.631Z,1.00
2022-08-12T10:15:02.445Z,1.20
2022-08-12T10:17:31.211Z,1.30
2022-08-12T10:20:00.040Z,1.20
2022-08-12T10:22:39.520Z,1.20
2022-08-12T10:26:36.052Z,1.00
2022-08-12T10:28:38.911Z,1.30
2022-08-12T10:31:16.339Z,1.10
2022-08-12T10:33:55.727Z,0.90
2022-08-12T10:36:42.617Z,1.00
2022-08-12T10:40:00.396Z,1.10
2022-08-12T10:42:29.227Z,1.10
2022-08-12T10:45:01.967Z,1.20
2022-08-12T10:48:19.871Z,1.10
2022-08-12T10:50:35.796Z,1.10
2022-08-12T10:53:19.596Z,1.20
2022-08-12T10:55:55.537Z,1.10
2022-08-12T10:58:31.615Z,1.20
2022-08-12T11:01:25.788Z,1.10
2022-08-12T11:04:28.129Z,1.10
2022-08-12T11:07:08.853Z,1.20
2022-08-12T11:09:41.933Z,1.30
2022-08-12T11:12:55.252Z,1.10
2022-08-12T11:15:18.922Z,0.90
2022-08-12T11:17:53.699Z,1.20
2022-08-12T11:20:23.954Z,1.40
2022-08-12T11:22:59.271Z,0.90
2022-08-12T11:25:56.141Z,1.30
2022-08-12T11:28:16.744Z,1.00
2022-08-12T11:30:45.617Z,1.10
2022-08-12T11:33:24.115Z,1.30
2022-08-12T11:36:15.902Z,1.10
2022-08-12T11:38:50.471Z,1.20
2022-08-12T11:41:28.209Z,1.00
2022-08-12T11:44:36.388Z,1.30
2022-08-12T11:46:53.250Z,1.10
2022-08-12T11:49:31.850Z,1.30
2022-08-12T11:52:04.383Z,0.90
2022-08-12T11:54:50.945Z,1.20
2022-08-12T11:58:42.265Z,1.20
2022-08-12T12:02:56.235Z,1.40
2022-08-12T12:05:28.371Z,1.30
2022-08-12T12:08:37.591Z,1.10
2022-08-12T12:10:56.213Z,1.10
2022-08-12T12:14:07.444Z,1.30
2022-08-12T12:16:12.859Z,1.30
2022-08-12T12:18:41.100Z,1.10
2022-08-12T12:21:09.376Z,1.20
2022-08-12T12:23:38.645Z,1.30
2022-08-12T12:26:35.235Z,1.20
2022-08-12T12:29:04.014Z,1.30
2022-08-12T12:32:10.796Z,1.30
2022-08-12T12:34:30.203Z,1.40
2022-08-12T12:37:00.785Z,1.30
2022-08-12T12:39:29.686Z,1.30
2022-08-12T12:42:47.572Z,1.20
2022-08-12T12:45:19.372Z,1.40
2022-08-12T12:48:03.728Z,1.20
2022-08-12T12:51:09.239Z,1.50
2022-08-12T12:54:07.730Z,1.10
2022-08-12T12:56:34.044Z,1.20
2022-08-12T12:59:06.267Z,1.50
2022-08-12T13:01:42.026Z,1.30
2022-08-12T13:04:14.626Z,1.30
2022-08-12T13:06:42.894Z,1.50
2022-08-12T13:09:13.603Z,1.40
2022-08-12T13:11:44.588Z,1.50
2022-08-12T13:14:29.638Z,1.30
2022-08-12T13:17:03.218Z,1.50
2022-08-12T13:19:38.754Z,1.50
2022-08-12T13:22:21.430Z,1.60
2022-08-12T13:24:56.278Z,1.40
2022-08-12T13:27:36.370Z,1.40
2022-08-12T13:30:12.566Z,1.30
2022-08-12T13:32:43.699Z,1.30
2022-08-12T13:35:33.536Z,1.10
2022-08-12T13:38:34.211Z,1.30
2022-08-12T13:41:04.121Z,1.50
2022-08-12T13:43:41.231Z,1.40
2022-08-12T13:46:14.174Z,1.30
2022-08-12T13:48:45.312Z,1.40
2022-08-12T13:51:24.052Z,1.30
2022-08-12T13:53:57.851Z,1.50
2022-08-12T13:56:33.485Z,1.10
2022-08-12T13:59:08.038Z,1.60
2022-08-12T14:01:40.332Z,1.30
2022-08-12T14:04:12.462Z,1.50
2022-08-12T14:06:41.446Z,1.40
2022-08-12T14:09:17.318Z,1.60
2022-08-12T14:11:58.273Z,1.50
2022-08-12T14:14:31.035Z,1.50
2022-08-12T14:17:05.125Z,1.80
2022-08-12T14:19:38.087Z,1.30
2022-08-12T14:22:14.818Z,1.70
2022-08-12T14:24:43.710Z,1.60
2022-08-12T14:27:12.540Z,1.50
2022-08-12T14:30:03.982Z,1.60
2022-08-12T14:32:35.618Z,1.40
2022-08-12T14:35:09.349Z,1.60
2022-08-12T14:37:56.816Z,1.40
2022-08-12T14:40:30.238Z,1.20
2022-08-12T14:42:59.075Z,1.40
2022-08-12T14:45:45.400Z,1.60
2022-08-12T14:48:23.948Z,1.60
2022-08-12T14:51:09.568Z,1.90
2022-08-12T14:55:28.342Z,1.80
2022-08-12T14:59:57.568Z,1.10
2022-08-12T15:02:28.798Z,1.70
2022-08-12T15:05:03.787Z,1.80
2022-08-12T15:07:33.809Z,1.60
2022-08-12T15:10:32.515Z,1.30
2022-08-12T15:13:06.889Z,1.40
2022-08-12T15:15:46.016Z,1.10
2022-08-12T15:18:22.776Z,1.30
2022-08-12T15:20:56.422Z,1.30
2022-08-12T15:23:29.232Z,1.20
2022-08-12T15:26:03.984Z,1.40
2022-08-12T15:28:35.718Z,1.40
2022-08-12T15:31:21.241Z,1.30
2022-08-12T15:33:58.050Z,1.40
2022-08-12T15:36:54.232Z,1.40
2022-08-12T15:39:16.666Z,1.40
2022-08-12T15:41:49.443Z,1.50
2022-08-12T15:44:38.155Z,1.30
2022-08-12T15:47:08.387Z,1.50
2022-08-12T15:49:54.228Z,1.40
2022-08-12T15:52:28.739Z,1.40
2022-08-12T15:55:06.209Z,1.50
2022-08-12T15:57:53.339Z,1.40
2022-08-12T16:00:32.778Z,1.40
2022-08-12T16:03:08.493Z,1.30
2022-08-12T16:06:12.450Z,1.50
2022-08-12T16:08:36.916Z,2.00
2022-08-12T16:11:07.204Z,1.20
2022-08-12T16:13:44.245Z,1.50
2022-08-12T16:16:23.726Z,1.50
2022-08-12T16:19:02.032Z,1.40
2022-08-12T16:21:50.334Z,1.50
2022-08-12T16:24:20.823Z,1.30
2022-08-12T16:26:51.588Z,1.60
2022-08-12T16:29:38.437Z,1.40
2022-08-12T16:32:24.586Z,1.30
2022-08-12T16:35:01.452Z,1.30
2022-08-12T16:38:24.988Z,1.30
2022-08-12T16:40:22.556Z,1.70
2022-08-12T16:42:54.161Z,1.60
2022-08-12T16:46:07.903Z,1.40
2022-08-12T16:48:35.662Z,2.20
2022-08-12T16:51:12.818Z,2.80
2022-08-12T16:53:44.346Z,1.60
2022-08-12T16:56:15.800Z,2.00
2022-08-12T16:58:47.403Z,2.00
2022-08-12T17:01:16.748Z,1.20
2022-08-12T17:04:08.216Z,3.70
2022-08-12T17:06:43.460Z,1.80
2022-08-12T17:09:17.303Z,1.40
2022-08-12T17:11:49.467Z,1.60
2022-08-12T17:14:20.361Z,1.70
2022-08-12T17:16:55.184Z,1.60
2022-08-12T17:20:29.800Z,1.70
2022-08-12T17:22:16.792Z,1.40
2022-08-12T17:24:55.424Z,1.40
2022-08-12T17:27:30.932Z,1.60
2022-08-12T17:30:05.235Z,1.60
2022-08-12T17:32:37.226Z,1.60
2022-08-12T17:35:29.721Z,1.40
2022-08-12T17:38:07.286Z,1.80
2022-08-12T17:40:46.685Z,1.60
2022-08-12T17:43:54.878Z,1.50
2022-08-12T17:46:12.922Z,1.60
2022-08-12T17:48:54.642Z,1.80
2022-08-12T17:51:24.669Z,1.50
2022-08-12T17:54:11.376Z,1.60
2022-08-12T17:56:43.307Z,1.60
2022-08-12T17:59:13.096Z,1.70
2022-08-12T18:01:45.354Z,1.90
2022-08-12T18:04:21.230Z,1.70
2022-08-12T18:06:52.322Z,1.50
2022-08-12T18:09:24.482Z,1.60
2022-08-12T18:12:24.625Z,1.50
2022-08-12T18:14:58.347Z,1.70
2022-08-12T18:17:29.293Z,1.80
2022-08-12T18:20:05.750Z,1.70
2022-08-12T18:22:36.539Z,1.80
2022-08-12T18:26:11.446Z,1.70
2022-08-12T18:28:15.759Z,1.90
2022-08-12T18:30:52.920Z,1.60
2022-08-12T18:33:26.812Z,1.60
2022-08-12T18:35:57.065Z,1.90
2022-08-12T18:38:28.170Z,2.00
2022-08-12T18:41:21.307Z,1.70
2022-08-12T18:44:08.036Z,2.10
2022-08-12T18:46:47.292Z,2.10
2022-08-12T18:49:24.831Z,1.70
2022-08-12T18:52:03.921Z,1.50
2022-08-12T18:54:36.069Z,1.80
2022-08-12T18:57:19.260Z,1.50
2022-08-12T19:00:02.629Z,2.00
2022-08-12T19:02:39.854Z,2.00
2022-08-12T19:05:11.811Z,2.00
2022-08-12T19:07:57.990Z,1.80
2022-08-12T19:10:31.800Z,1.60
2022-08-12T19:13:24.514Z,1.70
2022-08-12T19:15:54.964Z,2.00
2022-08-12T19:18:30.179Z,1.90
2022-08-12T19:21:06.638Z,1.70
2022-08-12T19:23:44.447Z,1.90
2022-08-12T19:26:13.303Z,1.80
2022-08-12T19:28:42.679Z,1.70
2022-08-12T19:31:57.192Z,1.90
2022-08-12T19:35:24.105Z,1.60
2022-08-12T19:38:02.892Z,1.80
2022-08-12T19:40:32.668Z,2.10
2022-08-12T19:43:23.032Z,1.80
2022-08-12T19:45:56.770Z,1.90
2022-08-12T19:48:30.549Z,1.80
2022-08-12T19:51:09.257Z,1.90
2022-08-12T19:53:56.665Z,1.70
2022-08-12T19:56:28.282Z,1.80
2022-08-12T19:59:18.558Z,2.10
2022-08-12T20:02:02.443Z,2.20
2022-08-12T20:04:32.973Z,1.80
2022-08-12T20:07:01.393Z,2.00
2022-08-12T20:09:38.890Z,1.60
2022-08-12T20:12:18.025Z,1.70
2022-08-12T20:14:52.718Z,1.70
2022-08-12T20:17:23.716Z,1.80
2022-08-12T20:20:18.812Z,2.20
2022-08-12T20:22:49.047Z,2.50
2022-08-12T20:25:19.201Z,2.90
2022-08-12T20:28:04.397Z,3.50
2022-08-12T20:30:52.305Z,3.50
2022-08-12T20:33:50.220Z,3.60
2022-08-12T20:36:42.763Z,3.10
2022-08-12T20:39:04.577Z,2.70
2022-08-12T20:41:45.421Z,2.50
2022-08-12T20:44:19.678Z,2.30
2022-08-12T20:46:48.445Z,2.10
2022-08-12T20:49:17.541Z,2.30
2022-08-12T20:51:55.197Z,2.10
2022-08-12T20:54:32.530Z,2.20
2022-08-12T20:57:09.870Z,1.90
2022-08-12T20:59:47.683Z,2.00
2022-08-12T21:02:18.602Z,2.50
2022-08-12T21:05:19.461Z,2.20
2022-08-12T21:07:51.949Z,2.50
2022-08-12T21:10:21.221Z,2.20
2022-08-12T21:12:51.148Z,1.80
2022-08-12T21:15:30.256Z,1.80
2022-08-12T21:18:10.869Z,1.80
2022-08-12T21:20:53.070Z,1.80
2022-08-12T21:23:22.885Z,1.90
2022-08-12T21:25:56.892Z,1.50
2022-08-12T21:28:31.916Z,1.60
2022-08-12T21:32:37.613Z,1.60
2022-08-12T21:34:06.990Z,1.80
2022-08-12T21:36:43.046Z,1.50
2022-08-12T21:39:18.428Z,1.70
2022-08-12T21:41:53.116Z,1.80
2022-08-12T21:45:47.732Z,1.80
2022-08-12T21:47:20.317Z,1.80
2022-08-12T21:50:03.728Z,1.70
2022-08-12T21:52:40.415Z,1.40
2022-08-12T21:55:19.336Z,1.60
2022-08-12T21:57:54.529Z,1.60
2022-08-12T22:00:35.260Z,1.90
2022-08-12T22:04:03.230Z,1.60
2022-08-12T22:06:31.065Z,1.70
2022-08-12T22:09:16.159Z,1.50
2022-08-12T22:11:56.066Z,1.60
2022-08-12T22:14:29.596Z,1.40
2022-08-12T22:17:00.568Z,1.70
2022-08-12T22:19:29.063Z,1.60
2022-08-12T22:22:04.033Z,1.60
2022-08-12T22:24:36.270Z,1.40
2022-08-12T22:27:31.485Z,1.50
2022-08-12T22:30:17.731Z,1.40
2022-08-12T22:32:50.241Z,1.20
2022-08-12T22:35:55.346Z,1.40
2022-08-12T22:38:24.112Z,1.50
2022-08-12T22:40:55.388Z,1.60
2022-08-12T22:44:00.655Z,1.50
2022-08-12T22:46:52.796Z,1.60
2022-08-12T22:49:36.636Z,1.50
2022-08-12T22:52:12.580Z,1.80
2022-08-12T22:54:46.155Z,1.50
2022-08-12T22:57:49.402Z,1.60
2022-08-12T23:00:24.631Z,1.40
2022-08-12T23:03:02.878Z,1.50
2022-08-12T23:05:57.304Z,1.30
2022-08-12T23:08:23.663Z,1.30
2022-08-12T23:11:00.606Z,1.50
2022-08-12T23:13:48.542Z,1.50
2022-08-12T23:16:29.428Z,1.40
2022-08-12T23:19:09.540Z,1.50
2022-08-12T23:22:04.008Z,1.40
2022-08-12T23:24:55.583Z,1.40
2022-08-12T23:27:50.909Z,1.70
2022-08-12T23:30:31.585Z,2.00
2022-08-12T23:33:01.781Z,1.50
2022-08-12T23:35:45.561Z,1.50
2022-08-12T23:38:31.133Z,1.60
2022-08-12T23:41:02.672Z,1.50
2022-08-12T23:43:38.966Z,1.30
2022-08-12T23:46:11.088Z,1.60
2022-08-12T23:48:40.068Z,1.20
2022-08-12T23:51:22.579Z,1.70
2022-08-12T23:54:00.084Z,1.40
2022-08-12T23:56:33.744Z,1.50
2022-08-12T23:59:04.727Z,1.70
